sensor_id;sensor_type;location;lat;lon;timestamp;P1;durP1;ratioP1;P2;durP2;ratioP2
41233;SDS011;26968;42.686;23.352;2022-07-10T00:02:02;20.45;;;15.70;;
41233;SDS011;26968;42.686;23.352;2022-07-10T00:04:27;18.88;;;15.98;;
41233;SDS011;26968;42.686;23.352;2022-07-10T00:06:53;20.42;;;15.15;;
41233;SDS011;26968;42.686;23.352;2022-07-10T00:09:20;25.75;;;16.55;;
41233;SDS011;26968;42.686;23.352;2022-07-10T00:11:47;24.60;;;16.17;;
41233;SDS011;26968;42.686;23.352;2022-07-10T00:14:12;20.48;;;15.88;;
41233;SDS011;26968;42.686;23.352;2022-07-10T00:16:38;18.58;;;15.98;;
41233;SDS011;26968;42.686;23.352;2022-07-10T00:19:03;19.13;;;15.88;;
41233;SDS011;26968;42.686;23.352;2022-07-10T00:21:29;19.33;;;16.23;;
41233;SDS011;26968;42.686;23.352;2022-07-10T00:23:54;18.00;;;15.65;;
41233;SDS011;26968;42.686;23.352;2022-07-10T00:26:20;21.33;;;16.45;;
41233;SDS011;26968;42.686;23.352;2022-07-10T00:28:45;25.23;;;16.50;;
41233;SDS011;26968;42.686;23.352;2022-07-10T00:31:11;22.50;;;15.60;;
41233;SDS011;26968;42.686;23.352;2022-07-10T00:33:37;21.88;;;16.58;;
41233;SDS011;26968;42.686;23.352;2022-07-10T00:36:03;21.77;;;16.40;;
41233;SDS011;26968;42.686;23.352;2022-07-10T00:38:30;23.00;;;16.42;;
41233;SDS011;26968;42.686;23.352;2022-07-10T00:40:55;19.60;;;15.73;;
41233;SDS011;26968;42.686;23.352;2022-07-10T00:43:21;19.63;;;15.77;;
41233;SDS011;26968;42.686;23.352;2022-07-10T00:45:48;18.25;;;15.38;;
41233;SDS011;26968;42.686;23.352;2022-07-10T00:48:13;19.65;;;17.42;;
41233;SDS011;26968;42.686;23.352;2022-07-10T00:50:39;36.40;;;16.95;;
41233;SDS011;26968;42.686;23.352;2022-07-10T00:53:06;19.13;;;16.90;;
41233;SDS011;26968;42.686;23.352;2022-07-10T00:55:32;24.90;;;16.60;;
41233;SDS011;26968;42.686;23.352;2022-07-10T00:58:00;18.52;;;16.10;;
41233;SDS011;26968;42.686;23.352;2022-07-10T01:00:27;23.90;;;17.35;;
41233;SDS011;26968;42.686;23.352;2022-07-10T01:02:53;22.40;;;16.13;;
41233;SDS011;26968;42.686;23.352;2022-07-10T01:05:19;19.45;;;15.48;;
41233;SDS011;26968;42.686;23.352;2022-07-10T01:07:44;23.58;;;16.17;;
41233;SDS011;26968;42.686;23.352;2022-07-10T01:10:10;29.15;;;16.85;;
41233;SDS011;26968;42.686;23.352;2022-07-10T01:12:36;20.25;;;16.92;;
41233;SDS011;26968;42.686;23.352;2022-07-10T01:15:02;19.90;;;16.63;;
41233;SDS011;26968;42.686;23.352;2022-07-10T01:17:28;19.75;;;15.13;;
41233;SDS011;26968;42.686;23.352;2022-07-10T01:19:55;19.58;;;15.88;;
41233;SDS011;26968;42.686;23.352;2022-07-10T01:22:20;16.75;;;14.90;;
41233;SDS011;26968;42.686;23.352;2022-07-10T01:24:46;18.25;;;14.80;;
41233;SDS011;26968;42.686;23.352;2022-07-10T01:27:11;18.23;;;16.15;;
41233;SDS011;26968;42.686;23.352;2022-07-10T01:29:37;20.42;;;15.85;;
41233;SDS011;26968;42.686;23.352;2022-07-10T01:32:02;17.88;;;14.63;;
41233;SDS011;26968;42.686;23.352;2022-07-10T01:34:28;18.27;;;15.82;;
41233;SDS011;26968;42.686;23.352;2022-07-10T01:36:54;20.67;;;15.38;;
41233;SDS011;26968;42.686;23.352;2022-07-10T01:39:19;24.15;;;15.55;;
41233;SDS011;26968;42.686;23.352;2022-07-10T01:41:45;20.63;;;15.02;;
41233;SDS011;26968;42.686;23.352;2022-07-10T01:44:10;21.17;;;15.93;;
41233;SDS011;26968;42.686;23.352;2022-07-10T01:46:42;21.02;;;16.33;;
41233;SDS011;26968;42.686;23.352;2022-07-10T01:49:12;18.98;;;15.52;;
41233;SDS011;26968;42.686;23.352;2022-07-10T01:51:38;19.60;;;15.65;;
41233;SDS011;26968;42.686;23.352;2022-07-10T01:54:03;19.48;;;16.33;;
41233;SDS011;26968;42.686;23.352;2022-07-10T01:56:29;18.45;;;15.80;;
41233;SDS011;26968;42.686;23.352;2022-07-10T01:58:54;20.15;;;15.85;;
41233;SDS011;26968;42.686;23.352;2022-07-10T02:01:20;20.25;;;15.13;;
41233;SDS011;26968;42.686;23.352;2022-07-10T02:03:45;20.10;;;15.10;;
41233;SDS011;26968;42.686;23.352;2022-07-10T02:06:29;21.17;;;14.80;;
41233;SDS011;26968;42.686;23.352;2022-07-10T02:08:55;17.90;;;15.07;;
41233;SDS011;26968;42.686;23.352;2022-07-10T02:11:20;16.83;;;14.73;;
41233;SDS011;26968;42.686;23.352;2022-07-10T02:13:46;20.38;;;14.77;;
41233;SDS011;26968;42.686;23.352;2022-07-10T02:16:11;19.98;;;14.82;;
41233;SDS011;26968;42.686;23.352;2022-07-10T02:18:37;19.00;;;14.70;;
41233;SDS011;26968;42.686;23.352;2022-07-10T02:21:04;19.80;;;14.45;;
41233;SDS011;26968;42.686;23.352;2022-07-10T02:23:29;18.80;;;16.35;;
41233;SDS011;26968;42.686;23.352;2022-07-10T02:25:55;17.15;;;14.75;;
41233;SDS011;26968;42.686;23.352;2022-07-10T02:28:20;22.83;;;14.55;;
41233;SDS011;26968;42.686;23.352;2022-07-10T02:30:46;25.38;;;14.73;;
41233;SDS011;26968;42.686;23.352;2022-07-10T02:33:11;20.17;;;14.48;;
41233;SDS011;26968;42.686;23.352;2022-07-10T02:35:37;20.17;;;15.07;;
41233;SDS011;26968;42.686;23.352;2022-07-10T02:38:02;16.83;;;15.02;;
41233;SDS011;26968;42.686;23.352;2022-07-10T02:40:27;21.70;;;15.50;;
41233;SDS011;26968;42.686;23.352;2022-07-10T02:42:53;20.33;;;15.50;;
41233;SDS011;26968;42.686;23.352;2022-07-10T02:45:18;18.02;;;15.57;;
41233;SDS011;26968;42.686;23.352;2022-07-10T02:47:44;17.92;;;14.75;;
41233;SDS011;26968;42.686;23.352;2022-07-10T02:50:09;19.52;;;15.00;;
41233;SDS011;26968;42.686;23.352;2022-07-10T02:52:35;17.13;;;14.70;;
41233;SDS011;26968;42.686;23.352;2022-07-10T02:55:00;25.70;;;15.85;;
41233;SDS011;26968;42.686;23.352;2022-07-10T02:57:26;18.02;;;15.13;;
41233;SDS011;26968;42.686;23.352;2022-07-10T02:59:51;20.55;;;14.60;;
41233;SDS011;26968;42.686;23.352;2022-07-10T03:02:16;18.92;;;14.98;;
41233;SDS011;26968;42.686;23.352;2022-07-10T03:04:42;19.27;;;15.68;;
41233;SDS011;26968;42.686;23.352;2022-07-10T03:07:08;16.95;;;14.95;;
41233;SDS011;26968;42.686;23.352;2022-07-10T03:09:33;20.77;;;14.57;;
41233;SDS011;26968;42.686;23.352;2022-07-10T03:11:59;16.35;;;13.98;;
41233;SDS011;26968;42.686;23.352;2022-07-10T03:14:25;19.42;;;15.50;;
41233;SDS011;26968;42.686;23.352;2022-07-10T03:16:50;20.77;;;16.02;;
41233;SDS011;26968;42.686;23.352;2022-07-10T03:19:16;22.52;;;15.23;;
41233;SDS011;26968;42.686;23.352;2022-07-10T03:21:41;18.95;;;15.18;;
41233;SDS011;26968;42.686;23.352;2022-07-10T03:24:06;17.42;;;14.02;;
41233;SDS011;26968;42.686;23.352;2022-07-10T03:26:32;18.70;;;13.40;;
41233;SDS011;26968;42.686;23.352;2022-07-10T03:28:57;24.88;;;14.40;;
41233;SDS011;26968;42.686;23.352;2022-07-10T03:31:23;16.15;;;13.30;;
41233;SDS011;26968;42.686;23.352;2022-07-10T03:33:48;14.70;;;13.20;;
41233;SDS011;26968;42.686;23.352;2022-07-10T03:36:14;25.63;;;13.55;;
41233;SDS011;26968;42.686;23.352;2022-07-10T03:38:40;18.35;;;13.25;;
41233;SDS011;26968;42.686;23.352;2022-07-10T03:41:05;21.33;;;13.73;;
41233;SDS011;26968;42.686;23.352;2022-07-10T03:43:31;21.90;;;13.40;;
41233;SDS011;26968;42.686;23.352;2022-07-10T03:45:57;19.80;;;14.38;;
41233;SDS011;26968;42.686;23.352;2022-07-10T03:48:22;16.88;;;13.25;;
41233;SDS011;26968;42.686;23.352;2022-07-10T03:50:51;20.35;;;13.00;;
41233;SDS011;26968;42.686;23.352;2022-07-10T03:53:17;22.85;;;14.32;;
41233;SDS011;26968;42.686;23.352;2022-07-10T03:55:44;19.48;;;14.48;;
41233;SDS011;26968;42.686;23.352;2022-07-10T03:58:10;20.52;;;13.95;;
41233;SDS011;26968;42.686;23.352;2022-07-10T04:00:35;17.55;;;13.43;;
41233;SDS011;26968;42.686;23.352;2022-07-10T04:03:03;15.63;;;13.45;;
41233;SDS011;26968;42.686;23.352;2022-07-10T04:05:31;26.38;;;13.75;;
41233;SDS011;26968;42.686;23.352;2022-07-10T04:07:57;18.13;;;13.32;;
41233;SDS011;26968;42.686;23.352;2022-07-10T04:10:23;19.58;;;13.63;;
41233;SDS011;26968;42.686;23.352;2022-07-10T04:12:50;20.30;;;14.60;;
41233;SDS011;26968;42.686;23.352;2022-07-10T04:15:16;18.33;;;14.02;;
41233;SDS011;26968;42.686;23.352;2022-07-10T04:17:42;22.40;;;12.88;;
41233;SDS011;26968;42.686;23.352;2022-07-10T04:20:08;14.48;;;12.95;;
41233;SDS011;26968;42.686;23.352;2022-07-10T04:22:34;16.92;;;13.13;;
41233;SDS011;26968;42.686;23.352;2022-07-10T04:24:59;14.45;;;12.60;;
41233;SDS011;26968;42.686;23.352;2022-07-10T04:27:24;21.13;;;13.65;;
41233;SDS011;26968;42.686;23.352;2022-07-10T04:29:50;21.83;;;13.35;;
41233;SDS011;26968;42.686;23.352;2022-07-10T04:32:16;18.73;;;12.57;;
41233;SDS011;26968;42.686;23.352;2022-07-10T04:34:41;18.92;;;13.07;;
41233;SDS011;26968;42.686;23.352;2022-07-10T04:37:07;24.13;;;13.15;;
41233;SDS011;26968;42.686;23.352;2022-07-10T04:39:33;21.17;;;12.35;;
41233;SDS011;26968;42.686;23.352;2022-07-10T04:42:00;18.95;;;13.20;;
41233;SDS011;26968;42.686;23.352;2022-07-10T04:44:26;14.80;;;13.20;;
41233;SDS011;26968;42.686;23.352;2022-07-10T04:46:51;18.95;;;12.90;;
41233;SDS011;26968;42.686;23.352;2022-07-10T04:49:17;16.17;;;12.52;;
41233;SDS011;26968;42.686;23.352;2022-07-10T04:51:42;17.80;;;12.82;;
41233;SDS011;26968;42.686;23.352;2022-07-10T04:54:08;19.30;;;11.68;;
41233;SDS011;26968;42.686;23.352;2022-07-10T04:56:33;18.23;;;12.57;;
41233;SDS011;26968;42.686;23.352;2022-07-10T04:58:58;15.10;;;12.20;;
41233;SDS011;26968;42.686;23.352;2022-07-10T05:01:24;18.48;;;12.80;;
41233;SDS011;26968;42.686;23.352;2022-07-10T05:03:49;17.95;;;11.75;;
41233;SDS011;26968;42.686;23.352;2022-07-10T05:06:15;14.00;;;12.00;;
41233;SDS011;26968;42.686;23.352;2022-07-10T05:08:40;14.02;;;11.95;;
41233;SDS011;26968;42.686;23.352;2022-07-10T05:11:06;16.02;;;11.52;;
41233;SDS011;26968;42.686;23.352;2022-07-10T05:13:31;18.52;;;11.25;;
41233;SDS011;26968;42.686;23.352;2022-07-10T05:15:57;15.57;;;11.45;;
41233;SDS011;26968;42.686;23.352;2022-07-10T05:18:22;14.25;;;11.32;;
41233;SDS011;26968;42.686;23.352;2022-07-10T05:20:47;17.20;;;11.25;;
41233;SDS011;26968;42.686;23.352;2022-07-10T05:23:14;16.52;;;11.30;;
41233;SDS011;26968;42.686;23.352;2022-07-10T05:25:40;15.02;;;10.77;;
41233;SDS011;26968;42.686;23.352;2022-07-10T05:28:06;14.02;;;11.48;;
41233;SDS011;26968;42.686;23.352;2022-07-10T05:30:32;14.00;;;10.32;;
41233;SDS011;26968;42.686;23.352;2022-07-10T05:32:58;16.10;;;11.10;;
41233;SDS011;26968;42.686;23.352;2022-07-10T05:35:23;17.00;;;11.07;;
41233;SDS011;26968;42.686;23.352;2022-07-10T05:37:49;19.70;;;10.57;;
41233;SDS011;26968;42.686;23.352;2022-07-10T05:40:14;15.88;;;11.73;;
41233;SDS011;26968;42.686;23.352;2022-07-10T05:42:40;19.27;;;10.70;;
41233;SDS011;26968;42.686;23.352;2022-07-10T05:45:05;15.25;;;9.68;;
41233;SDS011;26968;42.686;23.352;2022-07-10T05:47:32;16.08;;;11.10;;
41233;SDS011;26968;42.686;23.352;2022-07-10T05:49:58;12.15;;;10.93;;
41233;SDS011;26968;42.686;23.352;2022-07-10T05:52:24;13.15;;;10.55;;
41233;SDS011;26968;42.686;23.352;2022-07-10T05:54:49;13.35;;;10.02;;
41233;SDS011;26968;42.686;23.352;2022-07-10T05:57:15;15.55;;;10.75;;
41233;SDS011;26968;42.686;23.352;2022-07-10T05:59:41;17.50;;;10.32;;
41233;SDS011;26968;42.686;23.352;2022-07-10T06:02:06;20.30;;;10.88;;
41233;SDS011;26968;42.686;23.352;2022-07-10T06:04:33;16.15;;;9.82;;
41233;SDS011;26968;42.686;23.352;2022-07-10T06:06:59;12.55;;;9.95;;
41233;SDS011;26968;42.686;23.352;2022-07-10T06:09:24;12.93;;;9.13;;
41233;SDS011;26968;42.686;23.352;2022-07-10T06:11:50;14.38;;;9.98;;
41233;SDS011;26968;42.686;23.352;2022-07-10T06:14:15;16.30;;;9.15;;
41233;SDS011;26968;42.686;23.352;2022-07-10T06:16:41;16.70;;;9.70;;
41233;SDS011;26968;42.686;23.352;2022-07-10T06:19:07;15.05;;;9.18;;
41233;SDS011;26968;42.686;23.352;2022-07-10T06:21:32;15.40;;;8.60;;
41233;SDS011;26968;42.686;23.352;2022-07-10T06:23:57;16.27;;;8.18;;
41233;SDS011;26968;42.686;23.352;2022-07-10T06:26:23;11.57;;;8.57;;
41233;SDS011;26968;42.686;23.352;2022-07-10T06:28:49;11.55;;;8.55;;
41233;SDS011;26968;42.686;23.352;2022-07-10T06:31:15;11.40;;;7.72;;
41233;SDS011;26968;42.686;23.352;2022-07-10T06:33:40;11.88;;;8.57;;
41233;SDS011;26968;42.686;23.352;2022-07-10T06:36:06;10.40;;;8.07;;
41233;SDS011;26968;42.686;23.352;2022-07-10T06:38:32;10.95;;;7.38;;
41233;SDS011;26968;42.686;23.352;2022-07-10T06:40:57;8.68;;;6.75;;
41233;SDS011;26968;42.686;23.352;2022-07-10T06:43:23;14.95;;;7.60;;
41233;SDS011;26968;42.686;23.352;2022-07-10T06:45:48;12.05;;;6.63;;
41233;SDS011;26968;42.686;23.352;2022-07-10T06:48:14;11.57;;;7.10;;
41233;SDS011;26968;42.686;23.352;2022-07-10T06:50:40;11.65;;;7.43;;
41233;SDS011;26968;42.686;23.352;2022-07-10T06:53:06;12.90;;;6.88;;
41233;SDS011;26968;42.686;23.352;2022-07-10T06:55:32;16.65;;;7.50;;
41233;SDS011;26968;42.686;23.352;2022-07-10T06:57:58;8.50;;;7.35;;
41233;SDS011;26968;42.686;23.352;2022-07-10T07:00:24;10.63;;;6.88;;
41233;SDS011;26968;42.686;23.352;2022-07-10T07:02:50;13.85;;;7.47;;
41233;SDS011;26968;42.686;23.352;2022-07-10T07:05:16;9.77;;;6.95;;
41233;SDS011;26968;42.686;23.352;2022-07-10T07:07:41;11.05;;;6.78;;
41233;SDS011;26968;42.686;23.352;2022-07-10T07:10:07;16.48;;;7.22;;
41233;SDS011;26968;42.686;23.352;2022-07-10T07:12:33;11.13;;;6.35;;
41233;SDS011;26968;42.686;23.352;2022-07-10T07:14:59;12.65;;;6.53;;
41233;SDS011;26968;42.686;23.352;2022-07-10T07:17:25;11.55;;;6.75;;
41233;SDS011;26968;42.686;23.352;2022-07-10T07:19:58;10.70;;;7.80;;
41233;SDS011;26968;42.686;23.352;2022-07-10T07:22:43;11.38;;;6.80;;
41233;SDS011;26968;42.686;23.352;2022-07-10T07:25:27;15.27;;;6.82;;
41233;SDS011;26968;42.686;23.352;2022-07-10T07:27:53;13.85;;;7.50;;
41233;SDS011;26968;42.686;23.352;2022-07-10T07:30:18;10.75;;;6.32;;
41233;SDS011;26968;42.686;23.352;2022-07-10T07:32:44;9.15;;;6.53;;
41233;SDS011;26968;42.686;23.352;2022-07-10T07:35:11;18.05;;;8.93;;
41233;SDS011;26968;42.686;23.352;2022-07-10T07:37:38;11.10;;;7.75;;
41233;SDS011;26968;42.686;23.352;2022-07-10T07:40:06;10.75;;;6.88;;
41233;SDS011;26968;42.686;23.352;2022-07-10T07:42:32;11.55;;;6.70;;
41233;SDS011;26968;42.686;23.352;2022-07-10T07:44:58;11.55;;;7.13;;
41233;SDS011;26968;42.686;23.352;2022-07-10T07:47:23;8.10;;;5.80;;
41233;SDS011;26968;42.686;23.352;2022-07-10T07:49:49;12.82;;;7.10;;
41233;SDS011;26968;42.686;23.352;2022-07-10T07:52:15;17.75;;;7.20;;
41233;SDS011;26968;42.686;23.352;2022-07-10T07:54:40;12.30;;;5.75;;
41233;SDS011;26968;42.686;23.352;2022-07-10T07:57:06;19.00;;;5.38;;
41233;SDS011;26968;42.686;23.352;2022-07-10T07:59:31;11.68;;;5.75;;
41233;SDS011;26968;42.686;23.352;2022-07-10T08:01:57;11.32;;;5.15;;
41233;SDS011;26968;42.686;23.352;2022-07-10T08:04:23;6.57;;;4.53;;
41233;SDS011;26968;42.686;23.352;2022-07-10T08:06:48;12.85;;;4.90;;
41233;SDS011;26968;42.686;23.352;2022-07-10T08:09:17;8.93;;;4.85;;
41233;SDS011;26968;42.686;23.352;2022-07-10T08:11:45;8.23;;;5.35;;
41233;SDS011;26968;42.686;23.352;2022-07-10T08:14:12;9.73;;;5.45;;
41233;SDS011;26968;42.686;23.352;2022-07-10T08:16:38;9.65;;;5.30;;
41233;SDS011;26968;42.686;23.352;2022-07-10T08:19:03;6.55;;;4.38;;
41233;SDS011;26968;42.686;23.352;2022-07-10T08:21:29;9.82;;;4.18;;
41233;SDS011;26968;42.686;23.352;2022-07-10T08:23:55;6.30;;;4.82;;
41233;SDS011;26968;42.686;23.352;2022-07-10T08:26:20;8.40;;;4.82;;
41233;SDS011;26968;42.686;23.352;2022-07-10T08:28:46;8.93;;;4.22;;
41233;SDS011;26968;42.686;23.352;2022-07-10T08:31:11;7.50;;;4.50;;
41233;SDS011;26968;42.686;23.352;2022-07-10T08:33:37;6.68;;;4.30;;
41233;SDS011;26968;42.686;23.352;2022-07-10T08:36:03;7.95;;;4.72;;
41233;SDS011;26968;42.686;23.352;2022-07-10T08:38:29;8.75;;;5.00;;
41233;SDS011;26968;42.686;23.352;2022-07-10T08:40:54;10.50;;;4.22;;
41233;SDS011;26968;42.686;23.352;2022-07-10T08:43:24;5.63;;;4.30;;
41233;SDS011;26968;42.686;23.352;2022-07-10T08:45:53;7.50;;;4.10;;
41233;SDS011;26968;42.686;23.352;2022-07-10T08:48:22;6.00;;;4.65;;
41233;SDS011;26968;42.686;23.352;2022-07-10T08:50:51;6.68;;;3.75;;
41233;SDS011;26968;42.686;23.352;2022-07-10T08:53:23;6.60;;;3.85;;
41233;SDS011;26968;42.686;23.352;2022-07-10T08:55:54;8.75;;;4.63;;
41233;SDS011;26968;42.686;23.352;2022-07-10T08:58:20;5.63;;;4.18;;
41233;SDS011;26968;42.686;23.352;2022-07-10T09:00:47;6.85;;;4.22;;
41233;SDS011;26968;42.686;23.352;2022-07-10T09:03:13;5.88;;;4.28;;
41233;SDS011;26968;42.686;23.352;2022-07-10T09:05:38;4.65;;;3.90;;
41233;SDS011;26968;42.686;23.352;2022-07-10T09:08:04;8.32;;;4.22;;
41233;SDS011;26968;42.686;23.352;2022-07-10T09:10:48;8.45;;;4.00;;
41233;SDS011;26968;42.686;23.352;2022-07-10T09:13:15;8.38;;;4.10;;
41233;SDS011;26968;42.686;23.352;2022-07-10T09:15:47;9.75;;;4.80;;
41233;SDS011;26968;42.686;23.352;2022-07-10T09:18:17;10.45;;;4.65;;
41233;SDS011;26968;42.686;23.352;2022-07-10T09:20:43;5.93;;;3.80;;
41233;SDS011;26968;42.686;23.352;2022-07-10T09:23:15;7.38;;;4.03;;
41233;SDS011;26968;42.686;23.352;2022-07-10T09:25:42;13.15;;;5.57;;
41233;SDS011;26968;42.686;23.352;2022-07-10T09:28:08;8.88;;;4.70;;
41233;SDS011;26968;42.686;23.352;2022-07-10T09:30:35;5.88;;;4.18;;
41233;SDS011;26968;42.686;23.352;2022-07-10T09:46:16;10.23;;;4.38;;
41233;SDS011;26968;42.686;23.352;2022-07-10T09:48:43;9.82;;;3.72;;
41233;SDS011;26968;42.686;23.352;2022-07-10T09:51:09;9.20;;;3.88;;
41233;SDS011;26968;42.686;23.352;2022-07-10T09:53:42;29.48;;;4.93;;
41233;SDS011;26968;42.686;23.352;2022-07-10T09:56:10;4.97;;;3.30;;
41233;SDS011;26968;42.686;23.352;2022-07-10T09:58:36;4.68;;;3.10;;
41233;SDS011;26968;42.686;23.352;2022-07-10T10:01:04;5.07;;;2.90;;
41233;SDS011;26968;42.686;23.352;2022-07-10T10:03:34;8.85;;;2.75;;
41233;SDS011;26968;42.686;23.352;2022-07-10T10:06:08;7.05;;;2.83;;
41233;SDS011;26968;42.686;23.352;2022-07-10T10:08:56;6.90;;;3.00;;
41233;SDS011;26968;42.686;23.352;2022-07-10T10:11:27;7.15;;;3.55;;
41233;SDS011;26968;42.686;23.352;2022-07-10T10:13:56;11.55;;;2.60;;
41233;SDS011;26968;42.686;23.352;2022-07-10T10:16:22;9.20;;;2.90;;
41233;SDS011;26968;42.686;23.352;2022-07-10T10:18:52;3.47;;;2.63;;
41233;SDS011;26968;42.686;23.352;2022-07-10T10:21:38;3.60;;;2.47;;
41233;SDS011;26968;42.686;23.352;2022-07-10T10:24:04;11.80;;;3.00;;
41233;SDS011;26968;42.686;23.352;2022-07-10T10:26:31;7.47;;;2.70;;
41233;SDS011;26968;42.686;23.352;2022-07-10T10:28:57;4.95;;;3.08;;
41233;SDS011;26968;42.686;23.352;2022-07-10T10:31:26;6.78;;;2.78;;
41233;SDS011;26968;42.686;23.352;2022-07-10T10:33:56;4.93;;;2.83;;
41233;SDS011;26968;42.686;23.352;2022-07-10T10:39:11;6.50;;;2.67;;
41233;SDS011;26968;42.686;23.352;2022-07-10T10:41:56;7.43;;;3.08;;
41233;SDS011;26968;42.686;23.352;2022-07-10T10:44:22;4.60;;;2.80;;
41233;SDS011;26968;42.686;23.352;2022-07-10T10:49:14;5.85;;;2.60;;
41233;SDS011;26968;42.686;23.352;2022-07-10T10:54:30;10.30;;;3.13;;
41233;SDS011;26968;42.686;23.352;2022-07-10T10:57:16;7.82;;;3.10;;
41233;SDS011;26968;42.686;23.352;2022-07-10T11:02:30;5.00;;;3.22;;
41233;SDS011;26968;42.686;23.352;2022-07-10T11:10:30;4.78;;;2.45;;
41233;SDS011;26968;42.686;23.352;2022-07-10T11:15:55;10.27;;;3.33;;
41233;SDS011;26968;42.686;23.352;2022-07-10T11:18:22;7.32;;;3.05;;
41233;SDS011;26968;42.686;23.352;2022-07-10T11:20:50;13.85;;;4.80;;
41233;SDS011;26968;42.686;23.352;2022-07-10T11:23:26;2.78;;;2.40;;
41233;SDS011;26968;42.686;23.352;2022-07-10T11:26:13;5.05;;;2.60;;
41233;SDS011;26968;42.686;23.352;2022-07-10T11:28:55;7.03;;;3.25;;
41233;SDS011;26968;42.686;23.352;2022-07-10T11:31:23;6.80;;;3.30;;
41233;SDS011;26968;42.686;23.352;2022-07-10T11:33:51;9.77;;;3.00;;
41233;SDS011;26968;42.686;23.352;2022-07-10T11:36:18;5.30;;;2.80;;
41233;SDS011;26968;42.686;23.352;2022-07-10T11:38:47;7.72;;;2.42;;
41233;SDS011;26968;42.686;23.352;2022-07-10T11:44:13;7.82;;;2.90;;
41233;SDS011;26968;42.686;23.352;2022-07-10T11:46:32;5.78;;;2.75;;
41233;SDS011;26968;42.686;23.352;2022-07-10T11:49:02;5.82;;;2.45;;
41233;SDS011;26968;42.686;23.352;2022-07-10T11:51:35;9.30;;;3.20;;
41233;SDS011;26968;42.686;23.352;2022-07-10T11:56:35;7.30;;;2.83;;
41233;SDS011;26968;42.686;23.352;2022-07-10T11:59:07;3.58;;;2.30;;
41233;SDS011;26968;42.686;23.352;2022-07-10T12:01:34;5.28;;;2.55;;
41233;SDS011;26968;42.686;23.352;2022-07-10T12:04:06;6.38;;;2.53;;
41233;SDS011;26968;42.686;23.352;2022-07-10T12:06:35;4.75;;;2.42;;
41233;SDS011;26968;42.686;23.352;2022-07-10T12:09:05;7.03;;;2.45;;
41233;SDS011;26968;42.686;23.352;2022-07-10T12:11:35;7.22;;;2.50;;
41233;SDS011;26968;42.686;23.352;2022-07-10T12:14:14;6.70;;;2.50;;
41233;SDS011;26968;42.686;23.352;2022-07-10T12:16:48;5.88;;;2.25;;
41233;SDS011;26968;42.686;23.352;2022-07-10T12:19:17;6.70;;;2.50;;
41233;SDS011;26968;42.686;23.352;2022-07-10T12:21:45;3.20;;;2.05;;
41233;SDS011;26968;42.686;23.352;2022-07-10T12:24:12;5.30;;;2.35;;
41233;SDS011;26968;42.686;23.352;2022-07-10T12:26:41;7.60;;;2.03;;
41233;SDS011;26968;42.686;23.352;2022-07-10T12:29:11;5.30;;;2.20;;
41233;SDS011;26968;42.686;23.352;2022-07-10T12:31:52;4.57;;;2.25;;
41233;SDS011;26968;42.686;23.352;2022-07-10T12:34:20;4.35;;;1.95;;
41233;SDS011;26968;42.686;23.352;2022-07-10T12:37:09;3.67;;;1.80;;
41233;SDS011;26968;42.686;23.352;2022-07-10T12:39:45;4.10;;;2.15;;
41233;SDS011;26968;42.686;23.352;2022-07-10T12:42:12;3.90;;;2.22;;
41233;SDS011;26968;42.686;23.352;2022-07-10T12:44:43;4.97;;;2.25;;
41233;SDS011;26968;42.686;23.352;2022-07-10T12:47:13;4.32;;;2.53;;
41233;SDS011;26968;42.686;23.352;2022-07-10T12:52:25;7.15;;;2.33;;
41233;SDS011;26968;42.686;23.352;2022-07-10T12:55:11;7.28;;;2.00;;
41233;SDS011;26968;42.686;23.352;2022-07-10T12:57:48;2.63;;;1.65;;
41233;SDS011;26968;42.686;23.352;2022-07-10T13:00:14;4.85;;;1.65;;
41233;SDS011;26968;42.686;23.352;2022-07-10T13:02:41;3.70;;;1.60;;
41233;SDS011;26968;42.686;23.352;2022-07-10T13:05:07;5.15;;;2.15;;
41233;SDS011;26968;42.686;23.352;2022-07-10T13:07:33;6.68;;;2.03;;
41233;SDS011;26968;42.686;23.352;2022-07-10T13:10:03;4.70;;;2.13;;
41233;SDS011;26968;42.686;23.352;2022-07-10T13:12:31;4.15;;;1.92;;
41233;SDS011;26968;42.686;23.352;2022-07-10T13:14:57;6.05;;;1.85;;
41233;SDS011;26968;42.686;23.352;2022-07-10T13:17:23;5.95;;;1.45;;
41233;SDS011;26968;42.686;23.352;2022-07-10T13:19:49;3.10;;;1.45;;
41233;SDS011;26968;42.686;23.352;2022-07-10T13:22:16;11.80;;;1.73;;
41233;SDS011;26968;42.686;23.352;2022-07-10T13:24:41;2.03;;;1.20;;
41233;SDS011;26968;42.686;23.352;2022-07-10T13:27:07;2.80;;;1.50;;
41233;SDS011;26968;42.686;23.352;2022-07-10T13:29:33;10.13;;;1.60;;
41233;SDS011;26968;42.686;23.352;2022-07-10T13:31:58;3.15;;;1.40;;
41233;SDS011;26968;42.686;23.352;2022-07-10T13:34:24;9.48;;;1.40;;
41233;SDS011;26968;42.686;23.352;2022-07-10T13:36:49;3.45;;;1.10;;
41233;SDS011;26968;42.686;23.352;2022-07-10T13:39:16;4.85;;;1.25;;
41233;SDS011;26968;42.686;23.352;2022-07-10T13:41:42;1.80;;;1.10;;
41233;SDS011;26968;42.686;23.352;2022-07-10T13:44:07;5.68;;;1.48;;
41233;SDS011;26968;42.686;23.352;2022-07-10T13:46:33;4.93;;;1.02;;
41233;SDS011;26968;42.686;23.352;2022-07-10T13:48:58;3.13;;;1.20;;
41233;SDS011;26968;42.686;23.352;2022-07-10T13:51:24;3.55;;;1.30;;
41233;SDS011;26968;42.686;23.352;2022-07-10T13:53:50;4.32;;;1.27;;
41233;SDS011;26968;42.686;23.352;2022-07-10T13:56:15;3.92;;;1.35;;
41233;SDS011;26968;42.686;23.352;2022-07-10T13:58:42;4.22;;;1.45;;
41233;SDS011;26968;42.686;23.352;2022-07-10T14:01:07;4.43;;;1.52;;
41233;SDS011;26968;42.686;23.352;2022-07-10T14:03:33;4.45;;;1.38;;
41233;SDS011;26968;42.686;23.352;2022-07-10T14:05:58;5.13;;;1.90;;
41233;SDS011;26968;42.686;23.352;2022-07-10T14:08:24;3.40;;;1.30;;
41233;SDS011;26968;42.686;23.352;2022-07-10T14:10:50;4.45;;;1.30;;
41233;SDS011;26968;42.686;23.352;2022-07-10T14:13:16;4.50;;;1.25;;
41233;SDS011;26968;42.686;23.352;2022-07-10T14:15:41;3.70;;;2.03;;
41233;SDS011;26968;42.686;23.352;2022-07-10T14:18:09;2.85;;;1.55;;
41233;SDS011;26968;42.686;23.352;2022-07-10T14:20:35;2.97;;;1.27;;
41233;SDS011;26968;42.686;23.352;2022-07-10T14:23:20;5.30;;;1.27;;
41233;SDS011;26968;42.686;23.352;2022-07-10T14:25:45;2.58;;;1.13;;
41233;SDS011;26968;42.686;23.352;2022-07-10T14:28:11;9.35;;;1.90;;
41233;SDS011;26968;42.686;23.352;2022-07-10T14:30:38;3.00;;;1.42;;
41233;SDS011;26968;42.686;23.352;2022-07-10T14:33:05;5.47;;;1.48;;
41233;SDS011;26968;42.686;23.352;2022-07-10T14:35:31;4.00;;;1.30;;
41233;SDS011;26968;42.686;23.352;2022-07-10T14:37:57;3.70;;;1.27;;
41233;SDS011;26968;42.686;23.352;2022-07-10T14:40:22;3.90;;;1.30;;
41233;SDS011;26968;42.686;23.352;2022-07-10T14:42:47;2.30;;;1.63;;
41233;SDS011;26968;42.686;23.352;2022-07-10T14:45:13;3.03;;;1.50;;
41233;SDS011;26968;42.686;23.352;2022-07-10T14:47:38;3.17;;;1.52;;
41233;SDS011;26968;42.686;23.352;2022-07-10T14:50:04;5.35;;;1.88;;
41233;SDS011;26968;42.686;23.352;2022-07-10T14:52:30;4.05;;;1.38;;
41233;SDS011;26968;42.686;23.352;2022-07-10T14:54:56;3.72;;;1.50;;
41233;SDS011;26968;42.686;23.352;2022-07-10T14:57:22;5.35;;;1.50;;
41233;SDS011;26968;42.686;23.352;2022-07-10T14:59:47;7.80;;;1.90;;
41233;SDS011;26968;42.686;23.352;2022-07-10T15:02:13;4.30;;;1.30;;